Airfield :
LOGIN :

Register | Disclaimer

   EN    FR    IT 

 










Legend :    VFR   Marginal VFR   IFR   Intensive IFR   Very Intensive IFR
Visi :
Ceiling :
>= 8 km
>= 3000ft
5 to 8 km
1000 to 3000 ft
1500m to 5 km
500 to 1000 ft
800 to 1500m
200 to 500 ft
< 800m
< 200 ft
Symbols :   Thunderstorms  Fog  Heavy snow  Heavy precipitations  Wind > 20 kt
SIGMETs :     Misc.  Thunderstorms  Icing  Turbulence  Mountain Waves  Volcanic Ashes







- Airport Elevation : 7 ft
- IATA code : XHE
- Download approach charts


LFTH - Hyeres

CURRENT METAR :
  • 222200Z AUTO 00000KT CAVOK 16/10 Q1019 NOSIG

EXPIRED METARs :
  • 222130Z AUTO VRB03KT CAVOK 16/10 Q1019 NOSIG
  • 222100Z AUTO VRB01KT CAVOK 15/10 Q1019 NOSIG
  • 222030Z AUTO 00000KT CAVOK 16/10 Q1019 NOSIG
  • 222000Z AUTO 00000KT CAVOK 17/10 Q1018 NOSIG
  • 221930Z AUTO 23005KT CAVOK 17/12 Q1018 NOSIG

TAF TAF LFTH
Valid from the 22 at 21:00 until the 23 at 21:00 UTC


222000Z 2221/2321 VRB05KT CAVOK
PROB30
TEMPO 2300/2307 2500 BR
BECMG 2307/2308 23012KT
No reported NOTAMs for that airfield.



MET'MAP, your aeronautical weather chart ! - Copyright ORBIFLY December 2007 - Disclaimer

ORBIFLY MET'MAP TEAM :

Programming & Development : Alexandra Zaïnal
Concept & Development : Baudouin d'Aumeries
Co-Development & Prog : Marc-Olivier Méhu
Technical & hardware support : Manuel Goepfert

Contact : metmap@orbifly.com




SOURCES & CREDITS :

   NOAA